sensor_id;sensor_type;location;lat;lon;timestamp;pressure;altitude;pressure_sealevel;temperature;humidity
66801;BME280;53703;50.326;19.122;2023-12-20T00:01:21;98149.63;;;19.98;48.52
66801;BME280;53703;50.326;19.122;2023-12-20T00:03:55;98148.86;;;19.95;49.81
66801;BME280;53703;50.326;19.122;2023-12-20T00:06:28;98149.61;;;19.91;49.11
66801;BME280;53703;50.326;19.122;2023-12-20T00:09:02;98140.25;;;19.89;49.23
66801;BME280;53703;50.326;19.122;2023-12-20T00:11:35;98144.58;;;19.88;49.00
66801;BME280;53703;50.326;19.122;2023-12-20T00:14:09;98142.94;;;19.89;48.77
66801;BME280;53703;50.326;19.122;2023-12-20T00:16:42;98125.77;;;19.78;49.11
66801;BME280;53703;50.326;19.122;2023-12-20T00:19:15;98115.08;;;19.83;48.62
66801;BME280;53703;50.326;19.122;2023-12-20T00:21:49;98113.21;;;19.85;48.52
66801;BME280;53703;50.326;19.122;2023-12-20T00:24:22;98114.23;;;19.84;48.71
66801;BME280;53703;50.326;19.122;2023-12-20T00:26:56;98105.02;;;19.82;48.65
66801;BME280;53703;50.326;19.122;2023-12-20T00:29:30;98110.86;;;19.86;48.41
66801;BME280;53703;50.326;19.122;2023-12-20T00:32:03;98102.66;;;19.82;48.22
66801;BME280;53703;50.326;19.122;2023-12-20T00:34:37;98095.51;;;19.86;48.24
66801;BME280;53703;50.326;19.122;2023-12-20T00:37:10;98104.02;;;19.77;48.28
66801;BME280;53703;50.326;19.122;2023-12-20T00:39:43;98116.30;;;19.79;48.13
66801;BME280;53703;50.326;19.122;2023-12-20T00:42:17;98127.14;;;19.74;48.14
66801;BME280;53703;50.326;19.122;2023-12-20T00:44:50;98117.56;;;19.79;48.02
66801;BME280;53703;50.326;19.122;2023-12-20T00:47:24;98108.85;;;19.78;48.00
66801;BME280;53703;50.326;19.122;2023-12-20T00:49:57;98108.90;;;19.88;47.80
66801;BME280;53703;50.326;19.122;2023-12-20T00:52:31;98108.48;;;19.86;47.60
66801;BME280;53703;50.326;19.122;2023-12-20T00:55:06;98106.23;;;19.84;47.86
66801;BME280;53703;50.326;19.122;2023-12-20T00:57:40;98109.86;;;19.77;48.13
66801;BME280;53703;50.326;19.122;2023-12-20T01:00:16;98108.41;;;19.87;47.63
66801;BME280;53703;50.326;19.122;2023-12-20T01:02:49;98087.67;;;19.79;47.95
66801;BME280;53703;50.326;19.122;2023-12-20T01:05:24;98064.59;;;19.88;47.64
66801;BME280;53703;50.326;19.122;2023-12-20T01:07:57;98062.67;;;19.81;47.83
66801;BME280;53703;50.326;19.122;2023-12-20T01:10:31;98066.70;;;19.85;47.58
66801;BME280;53703;50.326;19.122;2023-12-20T01:13:04;98066.63;;;19.86;47.58
66801;BME280;53703;50.326;19.122;2023-12-20T01:15:38;98045.71;;;19.83;47.44
66801;BME280;53703;50.326;19.122;2023-12-20T01:18:11;98052.54;;;19.80;47.30
66801;BME280;53703;50.326;19.122;2023-12-20T01:20:45;98055.90;;;19.82;47.60
66801;BME280;53703;50.326;19.122;2023-12-20T01:23:18;98063.10;;;19.88;48.08
66801;BME280;53703;50.326;19.122;2023-12-20T01:25:52;98047.98;;;19.88;47.88
66801;BME280;53703;50.326;19.122;2023-12-20T01:28:26;98038.02;;;19.76;48.05
66801;BME280;53703;50.326;19.122;2023-12-20T01:31:00;98025.04;;;19.68;48.06
66801;BME280;53703;50.326;19.122;2023-12-20T01:33:33;98023.89;;;19.71;48.04
66801;BME280;53703;50.326;19.122;2023-12-20T01:36:08;98032.17;;;19.69;47.85
66801;BME280;53703;50.326;19.122;2023-12-20T01:38:41;98026.01;;;19.69;47.77
66801;BME280;53703;50.326;19.122;2023-12-20T01:41:15;98011.41;;;19.65;47.82
66801;BME280;53703;50.326;19.122;2023-12-20T01:43:48;98014.71;;;19.65;47.90
66801;BME280;53703;50.326;19.122;2023-12-20T01:46:23;98038.65;;;19.68;47.67
66801;BME280;53703;50.326;19.122;2023-12-20T01:48:57;98041.31;;;19.80;47.24
66801;BME280;53703;50.326;19.122;2023-12-20T01:51:31;98026.27;;;19.78;47.14
66801;BME280;53703;50.326;19.122;2023-12-20T01:54:06;98034.53;;;19.75;47.15
66801;BME280;53703;50.326;19.122;2023-12-20T01:56:40;98061.73;;;19.67;47.40
66801;BME280;53703;50.326;19.122;2023-12-20T01:59:14;98055.81;;;19.62;47.53
66801;BME280;53703;50.326;19.122;2023-12-20T02:01:47;98032.27;;;19.64;47.35
66801;BME280;53703;50.326;19.122;2023-12-20T02:04:21;98035.09;;;19.68;47.26
66801;BME280;53703;50.326;19.122;2023-12-20T02:06:57;98038.55;;;19.74;47.02
66801;BME280;53703;50.326;19.122;2023-12-20T02:09:33;98019.70;;;19.72;47.05
66801;BME280;53703;50.326;19.122;2023-12-20T02:12:07;98018.64;;;19.62;47.22
66801;BME280;53703;50.326;19.122;2023-12-20T02:14:40;98023.27;;;19.85;46.83
66801;BME280;53703;50.326;19.122;2023-12-20T02:17:14;98013.92;;;19.72;47.01
66801;BME280;53703;50.326;19.122;2023-12-20T02:19:49;98000.66;;;19.73;46.94
66801;BME280;53703;50.326;19.122;2023-12-20T02:22:23;98000.16;;;19.70;47.06
66801;BME280;53703;50.326;19.122;2023-12-20T02:24:56;98009.83;;;19.72;46.76
66801;BME280;53703;50.326;19.122;2023-12-20T02:27:30;98027.99;;;19.63;47.12
66801;BME280;53703;50.326;19.122;2023-12-20T02:30:05;98002.09;;;19.66;47.06
66801;BME280;53703;50.326;19.122;2023-12-20T02:32:39;98009.94;;;19.62;46.99
66801;BME280;53703;50.326;19.122;2023-12-20T02:35:12;98013.94;;;19.73;46.89
66801;BME280;53703;50.326;19.122;2023-12-20T02:37:46;98008.77;;;19.71;46.83
66801;BME280;53703;50.326;19.122;2023-12-20T02:40:19;97999.52;;;19.64;46.85
66801;BME280;53703;50.326;19.122;2023-12-20T02:42:53;98007.13;;;19.64;46.76
66801;BME280;53703;50.326;19.122;2023-12-20T02:45:27;98015.17;;;19.70;46.79
66801;BME280;53703;50.326;19.122;2023-12-20T02:48:01;98011.50;;;19.66;46.57
66801;BME280;53703;50.326;19.122;2023-12-20T02:50:35;98001.81;;;19.63;46.71
66801;BME280;53703;50.326;19.122;2023-12-20T02:53:08;97997.50;;;19.67;46.62
66801;BME280;53703;50.326;19.122;2023-12-20T02:55:42;97994.50;;;19.67;46.44
66801;BME280;53703;50.326;19.122;2023-12-20T02:58:15;97992.55;;;19.70;46.59
66801;BME280;53703;50.326;19.122;2023-12-20T03:00:50;97992.61;;;19.68;46.42
66801;BME280;53703;50.326;19.122;2023-12-20T03:03:24;97993.50;;;19.63;46.48
66801;BME280;53703;50.326;19.122;2023-12-20T03:05:57;97988.81;;;19.62;46.58
66801;BME280;53703;50.326;19.122;2023-12-20T03:08:31;97997.50;;;19.48;47.06
66801;BME280;53703;50.326;19.122;2023-12-20T03:11:05;97999.79;;;19.60;46.74
66801;BME280;53703;50.326;19.122;2023-12-20T03:13:39;97990.59;;;19.51;46.83
66801;BME280;53703;50.326;19.122;2023-12-20T03:16:13;98001.86;;;19.47;47.00
66801;BME280;53703;50.326;19.122;2023-12-20T03:18:48;98004.40;;;19.55;46.78
66801;BME280;53703;50.326;19.122;2023-12-20T03:21:21;98006.27;;;19.53;46.85
66801;BME280;53703;50.326;19.122;2023-12-20T03:23:55;98005.25;;;19.61;46.58
66801;BME280;53703;50.326;19.122;2023-12-20T03:26:29;97999.87;;;19.59;46.64
66801;BME280;53703;50.326;19.122;2023-12-20T03:29:02;97993.58;;;19.62;46.65
66801;BME280;53703;50.326;19.122;2023-12-20T03:31:36;97992.42;;;19.53;46.88
66801;BME280;53703;50.326;19.122;2023-12-20T03:34:10;97993.71;;;19.54;46.90
66801;BME280;53703;50.326;19.122;2023-12-20T03:36:43;97995.27;;;19.58;46.71
66801;BME280;53703;50.326;19.122;2023-12-20T03:39:20;97989.17;;;19.52;46.73
66801;BME280;53703;50.326;19.122;2023-12-20T03:41:53;97990.25;;;19.56;46.50
66801;BME280;53703;50.326;19.122;2023-12-20T03:44:27;97991.12;;;19.56;46.55
66801;BME280;53703;50.326;19.122;2023-12-20T03:47:00;97992.56;;;19.51;46.80
66801;BME280;53703;50.326;19.122;2023-12-20T03:49:34;97994.48;;;19.53;46.54
66801;BME280;53703;50.326;19.122;2023-12-20T03:52:09;97994.20;;;19.50;46.73
66801;BME280;53703;50.326;19.122;2023-12-20T03:54:43;97993.39;;;19.47;46.80
66801;BME280;53703;50.326;19.122;2023-12-20T03:57:16;97994.64;;;19.53;46.61
66801;BME280;53703;50.326;19.122;2023-12-20T03:59:50;97997.74;;;19.48;46.71
66801;BME280;53703;50.326;19.122;2023-12-20T04:02:23;98000.61;;;19.50;46.51
66801;BME280;53703;50.326;19.122;2023-12-20T04:04:56;97998.33;;;19.50;46.55
66801;BME280;53703;50.326;19.122;2023-12-20T04:07:30;97998.61;;;19.54;46.43
66801;BME280;53703;50.326;19.122;2023-12-20T04:10:04;97998.25;;;19.63;46.24
66801;BME280;53703;50.326;19.122;2023-12-20T04:12:38;97992.55;;;19.63;46.44
66801;BME280;53703;50.326;19.122;2023-12-20T04:15:12;97987.25;;;19.56;46.47
66801;BME280;53703;50.326;19.122;2023-12-20T04:17:45;97996.53;;;19.52;46.52
66801;BME280;53703;50.326;19.122;2023-12-20T04:20:19;97996.47;;;19.53;46.60
66801;BME280;53703;50.326;19.122;2023-12-20T04:22:53;97998.89;;;19.49;46.59
66801;BME280;53703;50.326;19.122;2023-12-20T04:25:26;97995.65;;;19.45;46.87
66801;BME280;53703;50.326;19.122;2023-12-20T04:28:00;97995.71;;;19.43;46.78
66801;BME280;53703;50.326;19.122;2023-12-20T04:30:34;97993.16;;;19.43;46.78
66801;BME280;53703;50.326;19.122;2023-12-20T04:33:07;97999.15;;;19.40;46.94
66801;BME280;53703;50.326;19.122;2023-12-20T04:35:41;98004.21;;;19.40;46.86
66801;BME280;53703;50.326;19.122;2023-12-20T04:38:15;98005.10;;;19.42;46.72
66801;BME280;53703;50.326;19.122;2023-12-20T04:40:48;97998.56;;;19.50;46.47
66801;BME280;53703;50.326;19.122;2023-12-20T04:43:22;97993.98;;;19.44;46.66
66801;BME280;53703;50.326;19.122;2023-12-20T04:45:55;97987.33;;;19.36;46.61
66801;BME280;53703;50.326;19.122;2023-12-20T04:48:29;97991.52;;;19.38;46.57
66801;BME280;53703;50.326;19.122;2023-12-20T04:51:03;97989.28;;;19.29;46.69
66801;BME280;53703;50.326;19.122;2023-12-20T04:53:36;97986.69;;;19.30;46.61
66801;BME280;53703;50.326;19.122;2023-12-20T04:56:10;97985.02;;;19.36;46.45
66801;BME280;53703;50.326;19.122;2023-12-20T04:58:45;97986.75;;;19.41;46.22
66801;BME280;53703;50.326;19.122;2023-12-20T05:01:19;97983.84;;;19.31;46.44
66801;BME280;53703;50.326;19.122;2023-12-20T05:03:53;97976.92;;;19.33;46.38
66801;BME280;53703;50.326;19.122;2023-12-20T05:06:26;97978.61;;;19.35;46.32
66801;BME280;53703;50.326;19.122;2023-12-20T05:09:00;97974.83;;;19.36;46.44
66801;BME280;53703;50.326;19.122;2023-12-20T05:11:33;97970.27;;;19.39;46.21
66801;BME280;53703;50.326;19.122;2023-12-20T05:14:07;97970.13;;;19.33;46.29
66801;BME280;53703;50.326;19.122;2023-12-20T05:16:40;97974.92;;;19.43;46.15
66801;BME280;53703;50.326;19.122;2023-12-20T05:19:14;97971.60;;;19.37;46.50
66801;BME280;53703;50.326;19.122;2023-12-20T05:21:48;97973.46;;;19.41;46.39
66801;BME280;53703;50.326;19.122;2023-12-20T05:24:21;97971.59;;;19.43;46.29
66801;BME280;53703;50.326;19.122;2023-12-20T05:26:55;97973.90;;;19.44;46.11
66801;BME280;53703;50.326;19.122;2023-12-20T05:29:31;97970.17;;;19.31;46.46
66801;BME280;53703;50.326;19.122;2023-12-20T05:32:06;97973.70;;;19.42;46.30
66801;BME280;53703;50.326;19.122;2023-12-20T05:34:39;97974.84;;;19.38;46.43
66801;BME280;53703;50.326;19.122;2023-12-20T05:37:13;97974.63;;;19.40;46.22
66801;BME280;53703;50.326;19.122;2023-12-20T05:39:47;97971.71;;;19.34;46.24
66801;BME280;53703;50.326;19.122;2023-12-20T05:42:20;97966.54;;;19.37;46.23
66801;BME280;53703;50.326;19.122;2023-12-20T05:44:54;97962.73;;;19.30;46.46
66801;BME280;53703;50.326;19.122;2023-12-20T05:47:30;97966.93;;;19.31;46.19
66801;BME280;53703;50.326;19.122;2023-12-20T05:50:04;97966.69;;;19.25;46.52
66801;BME280;53703;50.326;19.122;2023-12-20T05:52:38;97967.50;;;19.19;46.44
66801;BME280;53703;50.326;19.122;2023-12-20T05:55:11;97970.40;;;19.07;46.77
66801;BME280;53703;50.326;19.122;2023-12-20T05:57:45;97970.41;;;19.13;46.60
66801;BME280;53703;50.326;19.122;2023-12-20T06:00:20;97969.70;;;19.04;46.65
66801;BME280;53703;50.326;19.122;2023-12-20T06:02:54;97965.66;;;19.13;46.57
66801;BME280;53703;50.326;19.122;2023-12-20T06:05:27;97965.73;;;19.06;46.65
66801;BME280;53703;50.326;19.122;2023-12-20T06:08:01;97968.70;;;19.10;46.54
66801;BME280;53703;50.326;19.122;2023-12-20T06:10:35;97966.75;;;19.05;46.62
66801;BME280;53703;50.326;19.122;2023-12-20T06:13:08;97972.52;;;19.01;46.73
66801;BME280;53703;50.326;19.122;2023-12-20T06:15:42;97970.61;;;19.10;46.46
66801;BME280;53703;50.326;19.122;2023-12-20T06:18:16;97971.37;;;19.08;46.42
66801;BME280;53703;50.326;19.122;2023-12-20T06:20:49;97976.34;;;19.19;46.31
66801;BME280;53703;50.326;19.122;2023-12-20T06:23:26;97973.69;;;19.09;46.40
66801;BME280;53703;50.326;19.122;2023-12-20T06:26:00;97978.76;;;19.10;46.35
66801;BME280;53703;50.326;19.122;2023-12-20T06:28:33;97980.18;;;19.17;46.30
66801;BME280;53703;50.326;19.122;2023-12-20T06:31:08;97976.97;;;19.08;46.37
66801;BME280;53703;50.326;19.122;2023-12-20T06:33:42;97975.42;;;19.05;46.48
66801;BME280;53703;50.326;19.122;2023-12-20T06:36:18;97977.75;;;19.19;46.27
66801;BME280;53703;50.326;19.122;2023-12-20T06:38:52;97982.23;;;19.11;46.21
66801;BME280;53703;50.326;19.122;2023-12-20T06:41:25;97987.25;;;19.14;46.25
66801;BME280;53703;50.326;19.122;2023-12-20T06:43:59;97991.95;;;19.16;46.20
66801;BME280;53703;50.326;19.122;2023-12-20T06:46:33;97993.83;;;19.08;46.22
66801;BME280;53703;50.326;19.122;2023-12-20T06:49:06;97995.45;;;19.07;46.32
66801;BME280;53703;50.326;19.122;2023-12-20T06:51:40;97997.16;;;19.06;46.34
66801;BME280;53703;50.326;19.122;2023-12-20T06:54:13;97989.42;;;19.01;46.31
66801;BME280;53703;50.326;19.122;2023-12-20T06:56:47;98000.41;;;18.96;46.31
66801;BME280;53703;50.326;19.122;2023-12-20T06:59:20;97999.75;;;18.95;46.43
66801;BME280;53703;50.326;19.122;2023-12-20T07:01:54;97998.04;;;18.96;46.43
66801;BME280;53703;50.326;19.122;2023-12-20T07:04:27;98000.59;;;18.98;46.21
66801;BME280;53703;50.326;19.122;2023-12-20T07:07:01;98005.27;;;18.93;46.40
66801;BME280;53703;50.326;19.122;2023-12-20T07:09:35;98009.54;;;18.89;46.49
66801;BME280;53703;50.326;19.122;2023-12-20T07:12:09;98009.25;;;18.92;46.32
66801;BME280;53703;50.326;19.122;2023-12-20T07:14:42;98009.69;;;18.94;46.29
66801;BME280;53703;50.326;19.122;2023-12-20T07:17:16;98009.10;;;18.86;46.54
66801;BME280;53703;50.326;19.122;2023-12-20T07:19:49;98010.41;;;18.84;46.51
66801;BME280;53703;50.326;19.122;2023-12-20T07:22:23;98002.66;;;18.98;46.22
66801;BME280;53703;50.326;19.122;2023-12-20T07:24:57;98002.32;;;18.92;46.35
66801;BME280;53703;50.326;19.122;2023-12-20T07:27:30;98002.95;;;18.97;46.09
66801;BME280;53703;50.326;19.122;2023-12-20T07:30:05;98001.59;;;18.96;46.34
66801;BME280;53703;50.326;19.122;2023-12-20T07:32:38;98005.61;;;19.01;46.10
66801;BME280;53703;50.326;19.122;2023-12-20T07:35:12;98004.15;;;18.98;46.35
66801;BME280;53703;50.326;19.122;2023-12-20T07:37:46;98008.05;;;18.95;46.23
66801;BME280;53703;50.326;19.122;2023-12-20T07:40:20;98008.58;;;19.03;46.20
66801;BME280;53703;50.326;19.122;2023-12-20T07:42:53;98019.95;;;19.02;46.39
66801;BME280;53703;50.326;19.122;2023-12-20T07:45:27;98018.80;;;19.10;46.28
66801;BME280;53703;50.326;19.122;2023-12-20T07:48:00;98016.80;;;19.19;45.99
66801;BME280;53703;50.326;19.122;2023-12-20T07:50:35;98020.41;;;19.11;46.25
66801;BME280;53703;50.326;19.122;2023-12-20T07:53:09;98022.42;;;19.15;46.32
66801;BME280;53703;50.326;19.122;2023-12-20T07:55:43;98022.28;;;19.16;46.74
66801;BME280;53703;50.326;19.122;2023-12-20T07:58:17;98020.88;;;19.12;46.75
66801;BME280;53703;50.326;19.122;2023-12-20T08:00:50;98022.86;;;19.11;46.82
66801;BME280;53703;50.326;19.122;2023-12-20T08:03:24;98017.01;;;19.17;47.00
66801;BME280;53703;50.326;19.122;2023-12-20T08:05:58;98017.27;;;19.19;47.69
66801;BME280;53703;50.326;19.122;2023-12-20T08:08:32;98015.33;;;19.27;48.35
66801;BME280;53703;50.326;19.122;2023-12-20T08:11:06;98016.46;;;19.12;49.37
66801;BME280;53703;50.326;19.122;2023-12-20T08:13:39;98020.48;;;19.06;49.60
66801;BME280;53703;50.326;19.122;2023-12-20T08:16:12;98024.48;;;19.05;49.37
66801;BME280;53703;50.326;19.122;2023-12-20T08:18:48;98020.64;;;19.06;48.84
66801;BME280;53703;50.326;19.122;2023-12-20T08:21:22;98019.03;;;19.04;48.36
66801;BME280;53703;50.326;19.122;2023-12-20T08:23:55;98015.73;;;19.01;48.26
66801;BME280;53703;50.326;19.122;2023-12-20T08:26:29;98012.56;;;19.10;47.77
66801;BME280;53703;50.326;19.122;2023-12-20T08:29:03;98013.19;;;19.15;47.48
66801;BME280;53703;50.326;19.122;2023-12-20T08:31:36;98009.16;;;19.06;47.85
66801;BME280;53703;50.326;19.122;2023-12-20T08:34:10;98013.45;;;19.01;47.80
66801;BME280;53703;50.326;19.122;2023-12-20T08:36:45;98013.77;;;19.07;47.67
66801;BME280;53703;50.326;19.122;2023-12-20T08:39:19;98018.64;;;19.04;47.56
66801;BME280;53703;50.326;19.122;2023-12-20T08:41:52;98022.62;;;19.02;47.63
66801;BME280;53703;50.326;19.122;2023-12-20T08:44:26;98028.08;;;19.02;47.51
66801;BME280;53703;50.326;19.122;2023-12-20T08:46:59;98028.38;;;19.01;47.69
66801;BME280;53703;50.326;19.122;2023-12-20T08:49:33;98030.54;;;18.97;47.77
66801;BME280;53703;50.326;19.122;2023-12-20T08:52:07;98029.02;;;18.98;47.72
66801;BME280;53703;50.326;19.122;2023-12-20T08:54:41;98032.84;;;19.03;47.25
66801;BME280;53703;50.326;19.122;2023-12-20T08:57:16;98030.58;;;19.15;47.13
66801;BME280;53703;50.326;19.122;2023-12-20T08:59:50;98034.04;;;18.91;48.06
66801;BME280;53703;50.326;19.122;2023-12-20T09:02:23;98029.41;;;18.81;48.03
66801;BME280;53703;50.326;19.122;2023-12-20T09:04:57;98031.30;;;18.97;47.43
66801;BME280;53703;50.326;19.122;2023-12-20T09:07:31;98033.63;;;18.84;46.85
66801;BME280;53703;50.326;19.122;2023-12-20T09:10:05;98032.72;;;18.92;47.40
66801;BME280;53703;50.326;19.122;2023-12-20T09:12:39;98029.65;;;18.87;47.56
66801;BME280;53703;50.326;19.122;2023-12-20T09:15:13;98030.49;;;18.86;47.60
66801;BME280;53703;50.326;19.122;2023-12-20T09:17:47;98021.77;;;18.93;48.40
66801;BME280;53703;50.326;19.122;2023-12-20T09:20:21;98019.83;;;18.85;48.37
66801;BME280;53703;50.326;19.122;2023-12-20T09:22:56;98022.59;;;19.04;48.45
66801;BME280;53703;50.326;19.122;2023-12-20T09:25:29;98020.45;;;18.96;48.37
66801;BME280;53703;50.326;19.122;2023-12-20T09:28:03;98023.05;;;18.95;48.14
66801;BME280;53703;50.326;19.122;2023-12-20T09:30:36;98022.89;;;18.89;48.39
66801;BME280;53703;50.326;19.122;2023-12-20T09:33:12;98022.72;;;18.73;48.97
66801;BME280;53703;50.326;19.122;2023-12-20T09:35:46;98023.30;;;18.81;48.42
66801;BME280;53703;50.326;19.122;2023-12-20T09:38:20;98020.91;;;18.74;48.73
66801;BME280;53703;50.326;19.122;2023-12-20T09:40:54;98017.67;;;18.74;48.44
66801;BME280;53703;50.326;19.122;2023-12-20T09:43:28;98014.50;;;18.69;48.74
66801;BME280;53703;50.326;19.122;2023-12-20T09:46:06;98010.89;;;18.69;48.65
66801;BME280;53703;50.326;19.122;2023-12-20T09:48:43;98005.76;;;18.60;48.69
66801;BME280;53703;50.326;19.122;2023-12-20T09:51:18;98002.88;;;18.63;48.06
66801;BME280;53703;50.326;19.122;2023-12-20T09:53:55;98003.96;;;18.76;47.71
66801;BME280;53703;50.326;19.122;2023-12-20T09:56:29;97999.33;;;18.77;48.11
66801;BME280;53703;50.326;19.122;2023-12-20T09:59:03;98001.89;;;18.84;47.66
66801;BME280;53703;50.326;19.122;2023-12-20T10:01:37;97999.55;;;18.82;47.23
66801;BME280;53703;50.326;19.122;2023-12-20T10:04:13;98002.86;;;18.61;47.03
66801;BME280;53703;50.326;19.122;2023-12-20T10:07:05;98003.33;;;18.61;47.63
66801;BME280;53703;50.326;19.122;2023-12-20T10:09:39;98007.58;;;18.51;47.92
66801;BME280;53703;50.326;19.122;2023-12-20T10:12:14;98000.09;;;18.51;48.18
66801;BME280;53703;50.326;19.122;2023-12-20T10:14:47;98001.86;;;18.53;47.92
66801;BME280;53703;50.326;19.122;2023-12-20T10:17:22;97997.98;;;18.57;47.74
66801;BME280;53703;50.326;19.122;2023-12-20T10:19:57;97995.55;;;18.69;47.30
66801;BME280;53703;50.326;19.122;2023-12-20T10:22:31;97994.52;;;18.48;47.79
66801;BME280;53703;50.326;19.122;2023-12-20T10:25:06;97994.23;;;18.49;47.58
66801;BME280;53703;50.326;19.122;2023-12-20T10:27:40;97998.89;;;18.45;47.73
66801;BME280;53703;50.326;19.122;2023-12-20T10:30:15;97996.63;;;18.47;47.60
66801;BME280;53703;50.326;19.122;2023-12-20T10:32:49;97994.55;;;18.45;47.87
66801;BME280;53703;50.326;19.122;2023-12-20T10:35:23;97992.64;;;18.54;47.34
66801;BME280;53703;50.326;19.122;2023-12-20T10:37:59;97993.43;;;18.45;47.69
66801;BME280;53703;50.326;19.122;2023-12-20T10:40:37;97994.42;;;18.48;47.58
66801;BME280;53703;50.326;19.122;2023-12-20T10:43:11;97995.17;;;18.41;47.69
66801;BME280;53703;50.326;19.122;2023-12-20T10:45:45;97990.53;;;18.33;47.74
66801;BME280;53703;50.326;19.122;2023-12-20T10:48:19;97989.05;;;18.33;47.69
66801;BME280;53703;50.326;19.122;2023-12-20T10:50:56;97988.44;;;18.38;47.59
66801;BME280;53703;50.326;19.122;2023-12-20T10:53:31;97989.77;;;18.37;47.53
66801;BME280;53703;50.326;19.122;2023-12-20T10:56:07;97987.07;;;18.42;47.36
66801;BME280;53703;50.326;19.122;2023-12-20T10:58:43;97987.98;;;18.40;47.24
66801;BME280;53703;50.326;19.122;2023-12-20T11:01:18;97988.05;;;18.43;47.30
66801;BME280;53703;50.326;19.122;2023-12-20T11:03:54;97983.66;;;18.22;47.72
66801;BME280;53703;50.326;19.122;2023-12-20T11:06:35;97983.25;;;18.22;47.78
66801;BME280;53703;50.326;19.122;2023-12-20T11:09:19;97985.48;;;18.28;47.58
66801;BME280;53703;50.326;19.122;2023-12-20T11:12:16;97980.40;;;18.21;47.75
66801;BME280;53703;50.326;19.122;2023-12-20T11:14:53;97975.58;;;18.25;47.40
66801;BME280;53703;50.326;19.122;2023-12-20T11:17:28;97971.60;;;18.19;47.45
66801;BME280;53703;50.326;19.122;2023-12-20T11:20:12;97973.40;;;18.23;47.52
66801;BME280;53703;50.326;19.122;2023-12-20T11:22:56;97972.20;;;18.21;47.56
66801;BME280;53703;50.326;19.122;2023-12-20T11:25:29;97967.08;;;18.27;47.37
66801;BME280;53703;50.326;19.122;2023-12-20T11:28:13;97967.85;;;18.25;47.23
66801;BME280;53703;50.326;19.122;2023-12-20T11:30:51;97962.54;;;18.20;47.55
66801;BME280;53703;50.326;19.122;2023-12-20T11:33:27;97961.42;;;18.24;47.37
66801;BME280;53703;50.326;19.122;2023-12-20T11:36:03;97955.63;;;18.26;47.22
66801;BME280;53703;50.326;19.122;2023-12-20T11:38:39;97957.21;;;18.27;47.21
66801;BME280;53703;50.326;19.122;2023-12-20T11:41:25;97959.07;;;18.24;47.20
66801;BME280;53703;50.326;19.122;2023-12-20T11:43:58;97961.05;;;18.35;46.92
66801;BME280;53703;50.326;19.122;2023-12-20T11:46:33;97960.30;;;18.41;46.68
66801;BME280;53703;50.326;19.122;2023-12-20T11:49:07;97965.21;;;18.33;46.89
66801;BME280;53703;50.326;19.122;2023-12-20T11:51:45;97962.98;;;18.18;47.11
66801;BME280;53703;50.326;19.122;2023-12-20T11:54:18;97959.05;;;18.19;47.15
66801;BME280;53703;50.326;19.122;2023-12-20T11:56:52;97957.46;;;18.13;47.27
66801;BME280;53703;50.326;19.122;2023-12-20T11:59:26;97957.56;;;18.15;47.35
66801;BME280;53703;50.326;19.122;2023-12-20T12:01:59;97957.44;;;18.08;47.41
66801;BME280;53703;50.326;19.122;2023-12-20T12:04:34;97956.03;;;18.09;47.39
66801;BME280;53703;50.326;19.122;2023-12-20T12:07:08;97955.55;;;18.13;47.15
66801;BME280;53703;50.326;19.122;2023-12-20T12:09:42;97958.05;;;18.07;47.21
66801;BME280;53703;50.326;19.122;2023-12-20T12:12:16;97948.54;;;18.05;47.29
66801;BME280;53703;50.326;19.122;2023-12-20T12:14:51;97951.06;;;18.05;47.19
66801;BME280;53703;50.326;19.122;2023-12-20T12:17:25;97950.15;;;18.10;47.09
66801;BME280;53703;50.326;19.122;2023-12-20T12:20:08;97950.95;;;18.15;46.98
66801;BME280;53703;50.326;19.122;2023-12-20T12:22:44;97951.20;;;18.12;47.03
66801;BME280;53703;50.326;19.122;2023-12-20T12:25:20;97947.82;;;18.13;47.06
66801;BME280;53703;50.326;19.122;2023-12-20T12:27:55;97949.52;;;18.10;47.06
66801;BME280;53703;50.326;19.122;2023-12-20T12:30:29;97954.46;;;18.05;47.18
66801;BME280;53703;50.326;19.122;2023-12-20T12:33:13;97956.48;;;18.12;47.30
66801;BME280;53703;50.326;19.122;2023-12-20T12:35:49;97956.28;;;18.28;46.86
66801;BME280;53703;50.326;19.122;2023-12-20T12:38:25;97948.63;;;18.18;47.74
66801;BME280;53703;50.326;19.122;2023-12-20T12:41:01;97947.80;;;18.07;47.69
66801;BME280;53703;50.326;19.122;2023-12-20T12:43:35;97944.38;;;18.14;47.22
66801;BME280;53703;50.326;19.122;2023-12-20T12:46:09;97947.02;;;18.17;47.09
66801;BME280;53703;50.326;19.122;2023-12-20T12:48:44;97937.52;;;18.28;46.87
66801;BME280;53703;50.326;19.122;2023-12-20T12:51:23;97941.67;;;18.37;46.48
66801;BME280;53703;50.326;19.122;2023-12-20T12:53:57;97949.13;;;18.43;46.23
66801;BME280;53703;50.326;19.122;2023-12-20T12:56:32;97945.73;;;18.39;46.41
66801;BME280;53703;50.326;19.122;2023-12-20T12:59:06;97940.93;;;18.40;46.31
66801;BME280;53703;50.326;19.122;2023-12-20T13:01:43;97941.16;;;18.34;46.64
66801;BME280;53703;50.326;19.122;2023-12-20T13:04:19;97942.82;;;18.34;46.50
66801;BME280;53703;50.326;19.122;2023-12-20T13:07:02;97949.33;;;18.41;46.50
66801;BME280;53703;50.326;19.122;2023-12-20T13:09:37;97955.36;;;18.48;46.54
66801;BME280;53703;50.326;19.122;2023-12-20T13:12:11;97955.91;;;18.48;46.73
66801;BME280;53703;50.326;19.122;2023-12-20T13:14:48;97953.69;;;18.47;47.18
66801;BME280;53703;50.326;19.122;2023-12-20T13:17:22;97953.33;;;18.49;47.56
66801;BME280;53703;50.326;19.122;2023-12-20T13:19:56;97952.02;;;18.46;47.63
66801;BME280;53703;50.326;19.122;2023-12-20T13:22:31;97955.91;;;18.34;47.27
66801;BME280;53703;50.326;19.122;2023-12-20T13:25:13;97952.14;;;18.35;47.74
66801;BME280;53703;50.326;19.122;2023-12-20T13:27:47;97948.43;;;18.30;47.34